Sadan Bayraktar — TCRB — position and weather

sailwx.info

Track history (hours):
 
Tides and Currents Weather Stations Pressure Air Temp Water Temp Dewpoint Dewpoint Depression Visibility Wind Speed Wind Dir Waves Ship Positions

Sadan Bayraktar

Last reported at 2014-Sep-15 05:31 UTC. Time now 2014-Sep-19 03:49 UTC.
Position N 40°57' E 028°59'.

Length 116 m; draft 4.6 m.

Type: Cargo ship. MMSI: 271000653.

Date/timePositionNaut miles runAvg speedWind from/ knotsBaromVisibWave heightAir tempDewpointWater temp
2014-Sep-15 05:31N 40°57' E 028°59'4 0.5
2014-Sep-14 21:12N 40°58' E 028°54'0 0.0
2014-Sep-14 19:12N 40°58' E 028°54'0 0.0
2014-Sep-14 18:24N 40°58' E 028°54'0 0.0
2014-Sep-14 17:33N 40°58' E 028°54'0 0.0
2014-Sep-14 07:34N 40°57' E 028°55'10 9.5
2014-Sep-14 06:33N 40°50' E 029°02'1010.3
2014-Sep-14 05:34N 40°44' E 029°13'1010.3
2014-Sep-14 04:33N 40°45' E 029°27'2 0.1
2014-Sep-12 13:15N 40°45' E 029°30'5 7.7
2014-Sep-12 12:33N 40°44' E 029°23'5 1.6
2014-Sep-12 09:32N 40°42' E 029°18'0 0.2
2014-Sep-12 08:30N 40°42' E 029°18'0 0.2
2014-Sep-12 07:20N 40°42' E 029°18'4 5.2
2014-Sep-12 06:33N 40°43' E 029°13'1111.4
2014-Sep-12 05:33N 40°44' E 028°58'0 0.4
2014-Sep-12 04:33N 40°44' E 028°58'1 0.7
2014-Sep-12 03:31N 40°44' E 028°59'8 7.6
2014-Sep-12 02:28N 40°44' E 028°48'175 8.4
2014-Sep-11 05:32N 38°59' E 025°45'2110.4
2014-Sep-11 03:32N 38°38' E 025°46'1010.0
2014-Sep-11 02:33N 38°29' E 025°45'5510.6
2014-Sep-10 21:26N 37°34' E 025°52'8 9.5
2014-Sep-10 20:33N 37°27' E 025°56'1010.4
2014-Sep-10 19:33N 37°21' E 026°07'1110.8
2014-Sep-10 18:33N 37°13' E 026°17'1010.4
2014-Sep-10 17:33N 37°07' E 026°27'1010.5
2014-Sep-10 16:33N 36°60' E 026°37'11 9.9
2014-Sep-10 15:28N 36°51' E 026°45'9 9.8
2014-Sep-10 14:33N 36°43' E 026°51'  
Track history (hours):
 
Tides and Currents Weather Stations Pressure Air Temp Water Temp Dewpoint Dewpoint Depression Visibility Wind Speed Wind Dir Waves Ship Positions

Sadan Bayraktar

Last reported at 2014-Sep-15 05:31 UTC. Time now 2014-Sep-19 03:49 UTC.
Position N 40°57' E 028°59'.

Length 116 m; draft 4.6 m.

Type: Cargo ship. MMSI: 271000653.

Date/timePositionNaut miles runAvg speedWind from/ knotsBaromVisibWave heightAir tempDewpointWater temp
2014-Sep-15 05:31N 40°57' E 028°59'4 0.5
2014-Sep-14 21:12N 40°58' E 028°54'0 0.0
2014-Sep-14 19:12N 40°58' E 028°54'0 0.0
2014-Sep-14 18:24N 40°58' E 028°54'0 0.0
2014-Sep-14 17:33N 40°58' E 028°54'0 0.0
2014-Sep-14 07:34N 40°57' E 028°55'10 9.5
2014-Sep-14 06:33N 40°50' E 029°02'1010.3
2014-Sep-14 05:34N 40°44' E 029°13'1010.3
2014-Sep-14 04:33N 40°45' E 029°27'2 0.1
2014-Sep-12 13:15N 40°45' E 029°30'5 7.7
2014-Sep-12 12:33N 40°44' E 029°23'5 1.6
2014-Sep-12 09:32N 40°42' E 029°18'0 0.2
2014-Sep-12 08:30N 40°42' E 029°18'0 0.2
2014-Sep-12 07:20N 40°42' E 029°18'4 5.2
2014-Sep-12 06:33N 40°43' E 029°13'1111.4
2014-Sep-12 05:33N 40°44' E 028°58'0 0.4
2014-Sep-12 04:33N 40°44' E 028°58'1 0.7
2014-Sep-12 03:31N 40°44' E 028°59'8 7.6
2014-Sep-12 02:28N 40°44' E 028°48'175 8.4
2014-Sep-11 05:32N 38°59' E 025°45'2110.4
2014-Sep-11 03:32N 38°38' E 025°46'1010.0
2014-Sep-11 02:33N 38°29' E 025°45'5510.6
2014-Sep-10 21:26N 37°34' E 025°52'8 9.5
2014-Sep-10 20:33N 37°27' E 025°56'1010.4
2014-Sep-10 19:33N 37°21' E 026°07'1110.8
2014-Sep-10 18:33N 37°13' E 026°17'1010.4
2014-Sep-10 17:33N 37°07' E 026°27'1010.5
2014-Sep-10 16:33N 36°60' E 026°37'11 9.9
2014-Sep-10 15:28N 36°51' E 026°45'9 9.8
2014-Sep-10 14:33N 36°43' E 026°51'  

Dump ship's entire track history